Time;durP1;ratioP1;P1;durP2;ratioP2;P2;SDS_P1;SDS_P2;PMS_P1;PMS_P2;Temp;Humidity;BMP_temperature;BMP_pressure;BME280_temperature;BME280_humidity;BME280_pressure;Samples;Min_cycle;Max_cycle;Signal;HPM_P1;HPM_P2
2022/09/15 00:00:22;;;;;;;3.65;1.83;;;;;;;22.54;44.51;101358.13;5034340;28;20025;-76
2022/09/15 00:02:47;;;;;;;4.70;2.03;;;;;;;22.45;44.48;101354.84;5025351;28;20117;-77
2022/09/15 00:05:13;;;;;;;3.72;1.65;;;;;;;22.40;44.68;101360.75;5014479;28;20026;-79
2022/09/15 00:07:39;;;;;;;3.08;1.40;;;;;;;22.40;44.40;101364.31;5014525;28;20041;-76
2022/09/15 00:10:06;;;;;;;60.25;7.88;;;;;;;22.38;44.51;101368.69;5014525;28;20042;-81
2022/09/15 00:12:32;;;;;;;7.55;2.28;;;;;;;22.30;44.61;101370.56;5014315;28;20095;-77
2022/09/15 00:14:58;;;;;;;5.30;1.65;;;;;;;22.23;44.64;101370.47;5029817;28;20033;-81
2022/09/15 00:17:24;;;;;;;2.85;1.63;;;;;;;22.23;44.33;101370.47;5031357;28;20052;-78
2022/09/15 00:19:50;;;;;;;4.47;1.52;;;;;;;22.23;44.22;101366.88;5022964;28;20066;-77
2022/09/15 00:22:17;;;;;;;9.45;2.65;;;;;;;22.12;44.51;101367.53;5032190;28;20060;-76
2022/09/15 00:24:42;;;;;;;4.72;1.70;;;;;;;22.12;44.47;101369.50;5029061;28;20018;-76
2022/09/15 00:27:08;;;;;;;3.20;1.70;;;;;;;22.05;44.37;101372.16;5014045;28;20084;-76
2022/09/15 00:29:34;;;;;;;2.67;1.75;;;;;;;22.03;44.61;101371.72;5014113;28;20058;-77
2022/09/15 00:32:00;;;;;;;5.30;1.67;;;;;;;22.02;44.60;101370.94;5013942;28;20018;-77
2022/09/15 00:34:26;;;;;;;3.55;1.80;;;;;;;21.92;44.79;101377.16;5014021;28;20075;-77
2022/09/15 00:36:52;;;;;;;4.57;1.73;;;;;;;21.92;44.70;101377.16;5013997;28;20105;-75
2022/09/15 00:39:17;;;;;;;4.93;2.10;;;;;;;21.87;44.70;101375.50;5013784;28;20042;-76
2022/09/15 00:41:43;;;;;;;2.50;1.70;;;;;;;21.88;44.91;101381.84;5013904;28;20026;-77
2022/09/15 00:44:17;;;;;;;5.32;2.30;;;;;;;21.85;44.77;101379.84;5013776;28;20026;-76
2022/09/15 00:46:47;;;;;;;5.13;1.63;;;;;;;21.83;44.79;101374.63;5013737;28;20061;-76
2022/09/15 00:49:18;;;;;;;2.90;1.92;;;;;;;21.84;44.74;101376.25;5012423;28;20041;-77
2022/09/15 00:51:56;;;;;;;9.60;3.08;;;;;;;21.74;45.37;101376.06;5013645;28;20037;-76
2022/09/15 00:54:45;;;;;;;9.40;2.10;;;;;;;21.82;44.87;101377.78;5013646;28;20064;-77
2022/09/15 00:57:24;;;;;;;7.50;2.03;;;;;;;21.76;45.08;101382.06;5013688;28;20369;-77
2022/09/15 00:59:52;;;;;;;5.90;1.98;;;;;;;21.84;44.87;101389.34;5013516;28;20069;-76
2022/09/15 01:02:24;;;;;;;4.15;2.00;;;;;;;21.86;44.70;101375.88;5013514;28;20500;-76
2022/09/15 01:04:54;;;;;;;4.78;1.88;;;;;;;21.88;44.92;101379.88;5013529;28;20048;-77
2022/09/15 01:07:29;;;;;;;4.53;1.60;;;;;;;21.87;44.89;101380.25;5013302;28;20037;-76
2022/09/15 01:10:04;;;;;;;4.50;1.73;;;;;;;21.86;44.87;101373.09;5013282;28;20053;-77
2022/09/15 01:12:30;;;;;;;6.68;1.80;;;;;;;21.84;44.93;101373.47;5013398;28;20128;-80
2022/09/15 01:14:58;;;;;;;7.32;1.83;;;;;;;21.75;45.16;101372.09;5029260;28;20523;-77
2022/09/15 01:17:51;;;;;;;3.88;1.92;;;;;;;21.65;45.49;101373.56;5032938;28;20017;-79
2022/09/15 01:20:41;;;;;;;4.55;1.85;;;;;;;21.66;45.55;101371.56;5032935;28;20104;-77
2022/09/15 01:23:38;;;;;;;12.55;2.85;;;;;;;21.59;45.57;101373.06;5032273;28;20025;-79
2022/09/15 01:26:22;;;;;;;6.05;2.15;;;;;;;21.56;45.49;101375.78;5032828;28;20026;-77
2022/09/15 01:29:08;;;;;;;3.90;1.73;;;;;;;21.55;45.69;101368.63;5018120;28;20116;-76
2022/09/15 01:34:44;;;;;;;5.05;1.98;;;;;;;21.54;45.33;101373.41;5022009;28;20048;-79
2022/09/15 01:37:16;;;;;;;5.47;1.90;;;;;;;21.41;45.84;101373.97;5032798;28;20030;-77
2022/09/15 01:39:46;;;;;;;5.63;1.80;;;;;;;21.47;45.38;101378.84;5028775;28;20160;-77
2022/09/15 01:42:14;;;;;;;;;;;;;;;21.20;46.06;101375.16;5013589;28;20018;-80
2022/09/15 01:44:57;;;;;;;9.48;1.95;;;;;;;21.35;45.53;101379.00;5024292;28;19916;-76
2022/09/15 01:47:26;;;;;;;2.15;1.27;;;;;;;21.30;45.67;101373.75;5018675;28;20026;-82
2022/09/15 01:50:15;;;;;;;4.93;2.10;;;;;;;21.33;45.40;101368.28;5012741;28;20442;-78
2022/09/15 01:52:44;;;;;;;3.28;1.42;;;;;;;21.32;45.55;101372.22;5012728;28;20038;-80
2022/09/15 01:55:16;;;;;;;8.65;1.80;;;;;;;21.31;45.46;101387.31;5013777;28;20030;-76
2022/09/15 01:57:42;;;;;;;6.15;1.60;;;;;;;21.29;45.48;101384.06;5012669;28;20030;-78
2022/09/15 02:00:09;;;;;;;5.72;1.92;;;;;;;21.23;45.58;101384.72;5029400;28;20029;-80
2022/09/15 02:02:41;;;;;;;4.43;1.67;;;;;;;21.20;45.68;101383.50;5030733;28;20034;-79
2022/09/15 02:05:16;;;;;;;4.85;1.92;;;;;;;21.21;45.75;101381.50;5017222;28;20029;-77
2022/09/15 02:07:54;;;;;;;4.68;2.10;;;;;;;21.18;46.01;101371.16;5011297;28;20029;-77
2022/09/15 02:10:31;;;;;;;4.93;1.80;;;;;;;21.17;46.01;101373.13;5024165;28;20050;-76
2022/09/15 02:12:59;;;;;;;5.25;1.63;;;;;;;21.22;45.91;101377.56;5031689;28;20034;-78
2022/09/15 02:15:35;;;;;;;3.67;1.75;;;;;;;21.23;45.72;101376.38;5015020;28;20057;-76
2022/09/15 02:18:04;;;;;;;2.30;1.40;;;;;;;21.26;45.92;101378.44;5012560;28;20057;-77
2022/09/15 02:20:37;;;;;;;6.20;1.80;;;;;;;21.32;46.06;101379.78;5012500;28;20037;-77
2022/09/15 02:23:12;;;;;;;4.38;1.65;;;;;;;21.33;46.18;101378.59;5017973;28;20033;-77
2022/09/15 02:25:45;;;;;;;4.80;1.60;;;;;;;21.33;45.98;101382.16;5031606;28;20388;-77
2022/09/15 02:28:14;;;;;;;4.25;1.27;;;;;;;21.29;46.20;101378.50;5031885;28;20120;-78
2022/09/15 02:30:43;;;;;;;4.47;1.27;;;;;;;21.32;46.14;101383.34;5031736;28;20108;-76
2022/09/15 02:33:15;;;;;;;3.60;1.60;;;;;;;21.32;46.32;101385.31;5030207;28;20044;-77
2022/09/15 02:35:41;;;;;;;6.75;1.88;;;;;;;21.30;46.36;101390.44;5024570;28;20030;-80
2022/09/15 02:38:09;;;;;;;4.15;1.73;;;;;;;21.29;46.22;101384.06;5019505;28;20496;-84
2022/09/15 02:40:38;;;;;;;5.95;1.52;;;;;;;21.27;46.14;101386.44;5034386;28;20034;-78
2022/09/15 02:43:12;;;;;;;5.40;2.10;;;;;;;21.17;46.67;101383.44;5035929;28;20108;-78
2022/09/15 02:45:38;;;;;;;4.50;1.38;;;;;;;21.23;46.30;101390.28;5017811;28;20022;-78
2022/09/15 02:48:04;;;;;;;5.15;1.63;;;;;;;21.13;46.63;101388.13;5016091;28;20532;-83
2022/09/15 02:50:30;;;;;;;3.13;1.63;;;;;;;21.19;46.27;101389.41;5016007;28;20026;-78
2022/09/15 02:52:56;;;;;;;8.10;2.35;;;;;;;21.18;46.13;101390.59;5015902;28;20033;-82
2022/09/15 02:55:23;;;;;;;5.72;2.30;;;;;;;21.04;46.39;101388.34;5030650;28;20108;-83
2022/09/15 02:57:49;;;;;;;5.03;1.50;;;;;;;21.16;46.03;101385.41;5035639;28;20361;-83
2022/09/15 03:00:18;;;;;;;3.97;1.77;;;;;;;21.11;46.30;101385.72;5035531;28;20045;-84
2022/09/15 03:02:50;;;;;;;9.85;2.03;;;;;;;20.99;46.33;101391.44;5035689;28;20025;-83
2022/09/15 03:05:19;;;;;;;2.75;1.70;;;;;;;21.04;46.07;101386.38;5019727;28;20091;-82
2022/09/15 03:07:45;;;;;;;6.70;1.65;;;;;;;21.03;46.11;101389.53;5014424;28;20034;-81
2022/09/15 03:10:12;;;;;;;5.53;1.58;;;;;;;21.02;46.07;101390.72;5015492;28;20050;-81
2022/09/15 03:12:39;;;;;;;8.13;1.88;;;;;;;20.96;46.04;101390.19;5014800;28;20587;-82
2022/09/15 03:15:07;;;;;;;2.40;1.33;;;;;;;21.01;45.75;101391.88;5026465;28;20029;-77
2022/09/15 03:17:38;;;;;;;2.97;1.65;;;;;;;20.87;46.20;101388.81;5033613;28;20112;-78
2022/09/15 03:20:06;;;;;;;5.78;1.95;;;;;;;20.92;46.19;101386.53;5035172;28;20152;-83
2022/09/15 03:22:32;;;;;;;6.38;1.35;;;;;;;20.91;45.85;101387.72;5035168;28;20148;-81
2022/09/15 03:24:57;;;;;;;6.05;1.95;;;;;;;20.85;46.02;101391.94;5024907;28;20037;-82
2022/09/15 03:27:23;;;;;;;7.55;2.53;;;;;;;20.91;45.85;101390.50;5015352;28;20029;-81
2022/09/15 03:29:49;;;;;;;4.82;1.73;;;;;;;20.86;45.99;101393.59;5015230;28;20114;-83
2022/09/15 03:32:14;;;;;;;8.43;2.70;;;;;;;20.81;45.98;101393.88;5015322;28;20397;-83
2022/09/15 03:34:40;;;;;;;4.78;1.55;;;;;;;20.74;46.19;101388.97;5015306;28;20068;-83
2022/09/15 03:37:06;;;;;;;8.77;2.42;;;;;;;20.71;46.14;101391.69;5015092;28;20522;-83
2022/09/15 03:39:32;;;;;;;7.25;1.80;;;;;;;20.73;46.10;101390.16;5014940;28;20034;-76
2022/09/15 03:41:58;;;;;;;8.13;1.98;;;;;;;20.76;46.07;101394.97;5015098;28;20026;-76
2022/09/15 03:44:24;;;;;;;4.85;2.03;;;;;;;20.79;46.04;101401.78;5021554;28;20486;-75
2022/09/15 03:46:50;;;;;;;5.47;1.50;;;;;;;20.69;46.31;101405.13;5034684;28;20108;-80
2022/09/15 03:49:16;;;;;;;9.80;1.90;;;;;;;20.75;46.09;101404.47;5034653;28;20029;-75
2022/09/15 03:51:41;;;;;;;5.72;1.80;;;;;;;20.77;46.06;101398.53;5032198;28;20040;-75
2022/09/15 03:54:07;;;;;;;3.55;1.50;;;;;;;20.79;46.09;101404.56;5030461;28;20153;-77
2022/09/15 03:56:33;;;;;;;6.88;1.80;;;;;;;20.76;46.14;101405.25;5014695;28;20491;-75
2022/09/15 03:59:00;;;;;;;6.90;2.45;;;;;;;20.82;45.95;101414.91;5014589;28;20041;-76
2022/09/15 04:01:27;;;;;;;7.93;1.90;;;;;;;20.83;45.84;101416.53;5014881;28;20032;-76
2022/09/15 04:03:53;;;;;;;4.95;1.45;;;;;;;20.78;46.06;101420.41;5016145;28;20026;-76
2022/09/15 04:06:20;;;;;;;3.13;1.25;;;;;;;20.79;46.00;101421.22;5034252;28;20037;-76
2022/09/15 04:08:47;;;;;;;4.72;1.70;;;;;;;20.75;45.96;101425.88;5034232;28;20083;-77
2022/09/15 04:11:13;;;;;;;5.88;2.20;;;;;;;20.69;46.17;101427.34;5033698;28;20091;-79
2022/09/15 04:13:40;;;;;;;8.43;1.90;;;;;;;20.73;45.96;101429.03;5034180;28;20117;-77
2022/09/15 04:16:18;;;;;;;5.43;1.85;;;;;;;20.64;46.38;101435.97;5033638;28;20057;-76
2022/09/15 04:18:44;;;;;;;7.18;2.28;;;;;;;20.55;46.33;101438.13;5032553;28;20040;-76
2022/09/15 04:21:15;;;;;;;3.70;1.98;;;;;;;20.52;46.34;101438.88;5033879;28;20033;-76
2022/09/15 04:23:42;;;;;;;6.07;2.03;;;;;;;20.47;46.37;101435.19;5020216;28;20503;-79
2022/09/15 04:26:15;;;;;;;5.22;1.60;;;;;;;20.50;46.26;101434.50;5033521;28;20022;-76
2022/09/15 04:28:40;;;;;;;6.07;2.08;;;;;;;20.53;46.00;101434.94;5033919;28;20036;-76
2022/09/15 04:31:09;;;;;;;3.83;1.35;;;;;;;20.52;46.30;101438.88;5033853;28;20025;-75
2022/09/15 04:33:36;;;;;;;6.85;1.90;;;;;;;20.56;46.09;101440.56;5031253;28;20752;-75
2022/09/15 04:36:07;;;;;;;10.52;1.75;;;;;;;20.59;46.04;101444.59;5013917;28;20029;-75
2022/09/15 04:38:34;;;;;;;5.10;1.40;;;;;;;20.56;46.21;101445.31;5013886;28;20036;-76
2022/09/15 04:41:01;;;;;;;4.15;1.40;;;;;;;20.56;46.29;101446.13;5013808;28;20484;-75
2022/09/15 04:43:27;;;;;;;5.18;1.70;;;;;;;20.57;46.19;101452.47;5014293;28;20025;-77
2022/09/15 04:45:54;;;;;;;4.45;1.70;;;;;;;20.58;45.96;101440.19;5033214;28;20036;-76
2022/09/15 04:48:20;;;;;;;6.18;1.95;;;;;;;20.53;46.18;101451.59;5033498;28;20064;-76
2022/09/15 04:50:46;;;;;;;13.23;2.47;;;;;;;20.36;46.54;101438.91;5033526;28;20053;-76
2022/09/15 04:53:12;;;;;;;7.97;1.85;;;;;;;20.48;46.17;101439.63;5033343;28;20456;-76
2022/09/15 04:55:38;;;;;;;13.38;2.38;;;;;;;20.45;46.16;101437.53;5032344;28;20434;-76
2022/09/15 04:58:04;;;;;;;8.55;2.35;;;;;;;20.47;46.25;101437.97;5033282;28;20030;-76
2022/09/15 05:00:31;;;;;;;6.97;1.90;;;;;;;20.44;46.16;101449.03;5033197;28;20356;-79
2022/09/15 05:02:58;;;;;;;5.47;1.67;;;;;;;20.41;46.36;101449.72;5032897;28;20104;-75
2022/09/15 05:05:25;;;;;;;5.70;1.70;;;;;;;20.45;46.30;101451.44;5031030;28;20095;-76
2022/09/15 05:07:51;;;;;;;6.57;1.67;;;;;;;20.51;46.02;101449.19;5033018;28;20029;-75
2022/09/15 05:10:18;;;;;;;8.05;1.40;;;;;;;20.49;46.16;101451.53;5032924;28;20057;-75
2022/09/15 05:12:44;;;;;;;9.85;2.35;;;;;;;20.48;46.00;101450.72;5031858;28;20034;-81
2022/09/15 05:15:11;;;;;;;5.95;1.60;;;;;;;20.52;45.89;101458.31;5032472;28;20033;-75
2022/09/15 05:17:36;;;;;;;10.90;2.13;;;;;;;20.44;46.07;101452.59;5033003;28;20064;-75
2022/09/15 05:20:03;;;;;;;10.10;2.25;;;;;;;20.49;45.96;101460.66;5032818;28;20594;-76
2022/09/15 05:22:29;;;;;;;4.47;1.80;;;;;;;20.34;46.20;101457.91;5032894;28;20029;-76
2022/09/15 05:24:55;;;;;;;10.95;2.58;;;;;;;20.45;45.88;101462.53;5016804;28;20084;-81
2022/09/15 05:27:21;;;;;;;7.10;1.83;;;;;;;20.48;45.92;101456.28;5013000;28;20029;-76
2022/09/15 05:29:46;;;;;;;7.00;1.83;;;;;;;20.46;45.84;101461.34;5011599;28;20032;-75
2022/09/15 05:32:12;;;;;;;6.93;1.58;;;;;;;20.47;45.86;101459.38;5013014;28;20030;-76
2022/09/15 05:34:37;;;;;;;7.90;1.80;;;;;;;20.54;45.75;101453.19;5025698;28;20055;-76
2022/09/15 05:37:04;;;;;;;12.55;2.50;;;;;;;20.44;45.74;101455.38;5032662;28;20022;-75
2022/09/15 05:39:30;;;;;;;9.55;2.55;;;;;;;20.39;46.07;101457.59;5032392;28;20036;-76
2022/09/15 05:41:55;;;;;;;10.65;2.53;;;;;;;20.44;45.92;101457.34;5032621;28;20483;-75
2022/09/15 05:44:21;;;;;;;7.75;1.80;;;;;;;20.40;46.14;101468.34;5031707;28;20068;-75
2022/09/15 05:46:47;;;;;;;11.13;3.03;;;;;;;20.42;46.12;101460.47;5032281;28;20030;-76
2022/09/15 05:49:13;;;;;;;7.28;1.88;;;;;;;20.36;46.17;101458.31;5032586;28;20068;-80
2022/09/15 05:51:39;;;;;;;21.45;3.00;;;;;;;20.41;46.04;101467.19;5032484;28;20064;-79
2022/09/15 05:54:05;;;;;;;9.13;2.00;;;;;;;20.29;46.36;101466.50;5021928;28;20479;-75
2022/09/15 05:56:31;;;;;;;12.10;2.20;;;;;;;20.53;45.81;101469.03;5012769;28;20110;-75
2022/09/15 05:58:58;;;;;;;13.93;2.63;;;;;;;20.51;45.82;101468.59;5012690;28;20041;-77
2022/09/15 06:01:27;;;;;;;11.43;2.00;;;;;;;20.44;46.23;101472.03;5012681;28;20041;-79
2022/09/15 06:03:54;;;;;;;9.10;2.03;;;;;;;20.45;46.24;101473.63;5020749;28;20025;-76
2022/09/15 06:06:20;;;;;;;7.78;2.25;;;;;;;20.53;45.99;101477.38;5032366;28;20033;-76
2022/09/15 06:08:49;;;;;;;10.32;2.05;;;;;;;20.55;46.10;101479.78;5032293;28;20029;-75
2022/09/15 06:11:17;;;;;;;18.30;3.05;;;;;;;20.40;46.38;101486.94;5012253;28;20089;-75
2022/09/15 06:13:44;;;;;;;15.02;3.58;;;;;;;20.55;46.01;101485.34;5012801;28;20045;-77
2022/09/15 06:16:17;;;;;;;9.75;3.45;;;;;;;20.61;45.87;101481.09;5028597;28;20036;-76
2022/09/15 06:18:42;;;;;;;48.42;6.78;;;;;;;20.64;45.83;101485.94;5018631;28;20034;-76
2022/09/15 06:21:20;;;;;;;17.73;2.35;;;;;;;20.67;45.85;101472.13;5015189;28;20045;-78
2022/09/15 06:23:50;;;;;;;10.75;3.28;;;;;;;20.80;45.45;101483.91;5024448;28;20033;-76
2022/09/15 06:26:17;;;;;;;14.50;2.90;;;;;;;20.69;45.80;101482.88;5036190;28;20030;-76
2022/09/15 06:28:52;;;;;;;10.60;2.40;;;;;;;20.68;45.93;101492.38;5035698;28;20061;-78
2022/09/15 06:31:18;;;;;;;11.70;2.70;;;;;;;20.73;45.89;101492.91;5034831;28;20128;-75
2022/09/15 06:33:51;;;;;;;15.93;2.45;;;;;;;20.59;46.08;101491.78;5026323;28;20034;-76
2022/09/15 06:36:19;;;;;;;8.25;2.10;;;;;;;20.67;46.04;101493.53;5016210;28;20036;-82
2022/09/15 06:38:46;;;;;;;9.60;2.50;;;;;;;20.74;45.67;101502.03;5016112;28;20480;-78
2022/09/15 06:41:12;;;;;;;12.05;2.67;;;;;;;20.63;46.20;101498.19;5015094;28;20369;-76
2022/09/15 06:43:38;;;;;;;14.70;3.38;;;;;;;20.74;45.63;101502.03;5035882;28;20106;-75
2022/09/15 06:46:19;;;;;;;10.43;3.08;;;;;;;20.73;45.82;101511.53;5034329;28;20060;-76
2022/09/15 06:48:45;;;;;;;8.55;2.45;;;;;;;20.78;45.72;101502.91;5024387;28;20038;-76
2022/09/15 06:51:12;;;;;;;19.30;3.72;;;;;;;20.81;45.81;101510.53;5019452;28;20365;-76
2022/09/15 06:53:38;;;;;;;12.88;2.35;;;;;;;20.91;45.43;101511.91;5035481;28;20040;-76
2022/09/15 06:56:10;;;;;;;11.23;2.97;;;;;;;20.86;45.68;101515.00;5031214;28;20074;-76
2022/09/15 06:58:38;;;;;;;78.05;11.13;;;;;;;20.97;45.40;101516.00;5031517;28;20095;-80
2022/09/15 07:01:12;;;;;;;17.88;3.88;;;;;;;21.01;45.50;101514.94;5025467;28;20033;-76
2022/09/15 07:03:41;;;;;;;19.55;3.88;;;;;;;21.07;45.30;101515.41;5015943;28;20030;-76
2022/09/15 07:06:08;;;;;;;16.65;3.53;;;;;;;21.01;45.41;101519.69;5014331;28;20026;-77
2022/09/15 07:08:33;;;;;;;9.90;2.75;;;;;;;21.08;45.50;101519.00;5018073;28;20036;-81
2022/09/15 07:10:59;;;;;;;15.98;3.55;;;;;;;21.07;45.42;101520.97;5035088;28;20100;-77
2022/09/15 07:13:25;;;;;;;45.67;7.13;;;;;;;21.04;45.84;101521.72;5019513;28;20034;-77
2022/09/15 07:15:56;;;;;;;12.82;2.33;;;;;;;20.98;45.55;101515.63;5015684;28;20109;-83
2022/09/15 07:18:22;;;;;;;11.00;2.42;;;;;;;21.21;45.03;101520.47;5015470;28;20034;-76
2022/09/15 07:20:48;;;;;;;26.17;3.60;;;;;;;21.08;45.21;101522.56;5017460;28;20103;-81
2022/09/15 07:23:14;;;;;;;11.32;3.05;;;;;;;21.30;44.90;101521.88;5024125;28;20049;-77
2022/09/15 07:25:43;;;;;;;11.32;2.40;;;;;;;21.32;44.87;101518.75;5021002;28;20030;-76
2022/09/15 07:28:12;;;;;;;6.05;2.55;;;;;;;21.50;44.65;101522.66;5024419;28;20084;-77
2022/09/15 07:30:38;;;;;;;13.38;3.15;;;;;;;21.55;44.68;101530.72;5034970;28;20034;-77
2022/09/15 07:33:05;;;;;;;19.00;3.60;;;;;;;21.59;44.55;101528.78;5034849;28;20028;-78
2022/09/15 07:35:31;;;;;;;30.27;4.95;;;;;;;21.63;44.33;101530.84;5034939;28;20104;-77
2022/09/15 07:37:56;;;;;;;12.57;3.35;;;;;;;21.61;44.60;101533.97;5034940;28;20487;-74
2022/09/15 07:40:22;;;;;;;26.55;3.20;;;;;;;21.68;44.10;101531.31;5033342;28;20037;-80
2022/09/15 07:42:47;;;;;;;10.18;2.40;;;;;;;21.72;44.04;101528.63;5032999;28;20029;-80
2022/09/15 07:45:13;;;;;;;11.45;2.65;;;;;;;21.75;43.98;101533.44;5034632;28;20068;-81
2022/09/15 07:47:38;;;;;;;12.57;2.65;;;;;;;21.82;43.70;101539.91;5034537;28;20033;-80
2022/09/15 07:50:05;;;;;;;54.15;7.10;;;;;;;21.96;43.50;101533.81;5034620;28;20083;-79
2022/09/15 07:52:31;;;;;;;8.85;2.75;;;;;;;21.96;43.37;101550.50;5019436;28;20490;-78
2022/09/15 07:54:56;;;;;;;12.60;2.00;;;;;;;22.02;43.55;101559.34;5017612;28;20061;-78
2022/09/15 07:57:22;;;;;;;15.45;2.95;;;;;;;22.02;43.55;101559.34;5018412;28;20392;-78
2022/09/15 07:59:48;;;;;;;15.25;2.97;;;;;;;22.11;43.48;101565.50;5018123;28;20120;-78
2022/09/15 08:02:18;;;;;;;5.95;1.63;;;;;;;22.02;43.53;101560.16;5018366;28;20079;-78
2022/09/15 08:04:44;;;;;;;23.05;3.70;;;;;;;22.12;43.16;101558.75;5018506;28;20025;-80
2022/09/15 08:07:10;;;;;;;37.50;5.47;;;;;;;22.20;42.91;101566.03;5018169;28;20030;-77
2022/09/15 08:09:37;;;;;;;16.17;4.18;;;;;;;22.30;42.97;101561.84;5017538;28;20408;-80
2022/09/15 08:12:04;;;;;;;17.35;3.00;;;;;;;22.42;42.66;101564.41;5016711;28;20057;-77
2022/09/15 08:14:32;;;;;;;11.85;2.22;;;;;;;22.38;42.89;101566.34;5014300;28;20607;-77
2022/09/15 08:17:00;;;;;;;15.95;2.33;;;;;;;22.40;42.78;101570.34;5014967;28;20033;-77
2022/09/15 08:19:34;;;;;;;8.13;1.65;;;;;;;22.40;42.48;101566.78;5010850;28;20018;-76
2022/09/15 08:22:01;;;;;;;8.57;1.83;;;;;;;22.53;42.33;101556.25;5013703;28;20030;-81
2022/09/15 08:24:27;;;;;;;7.68;2.00;;;;;;;22.57;42.37;101571.00;5017651;28;20049;-77
2022/09/15 08:26:53;;;;;;;15.55;3.70;;;;;;;22.67;41.79;101564.78;5017290;28;20013;-76
2022/09/15 08:29:19;;;;;;;8.20;2.90;;;;;;;22.56;42.15;101575.78;5015487;28;20056;-77
2022/09/15 08:31:46;;;;;;;7.82;2.10;;;;;;;22.66;42.05;101577.91;5029039;28;20075;-77
2022/09/15 08:34:13;;;;;;;17.67;2.30;;;;;;;22.81;41.62;101583.69;5033839;28;20079;-77
2022/09/15 08:36:39;;;;;;;13.50;3.10;;;;;;;22.80;41.65;101582.88;5033637;28;20133;-77
2022/09/15 08:39:05;;;;;;;16.42;3.60;;;;;;;22.77;41.95;101583.66;5033327;28;20105;-79
2022/09/15 08:41:42;;;;;;;48.08;6.97;;;;;;;22.94;41.41;101585.09;5033100;28;20057;-77
2022/09/15 08:44:24;;;;;;;7.05;2.08;;;;;;;22.79;41.18;101580.47;5032179;28;20036;-77
2022/09/15 08:47:14;;;;;;;5.85;1.80;;;;;;;22.50;41.22;101585.63;5033098;28;20049;-76
2022/09/15 08:49:43;;;;;;;11.90;2.47;;;;;;;22.83;41.18;101587.72;5033548;28;20049;-77
2022/09/15 08:52:20;;;;;;;10.68;2.60;;;;;;;23.00;40.17;101594.75;5033414;28;20048;-75
2022/09/15 08:54:49;;;;;;;6.80;2.10;;;;;;;23.02;40.54;101600.75;5033017;28;20431;-77
2022/09/15 08:57:19;;;;;;;13.65;1.98;;;;;;;23.01;40.19;101607.50;5031337;28;20111;-77
2022/09/15 08:59:45;;;;;;;8.63;2.05;;;;;;;23.17;39.65;101602.53;5031586;28;20079;-83
2022/09/15 09:02:23;;;;;;;10.98;2.47;;;;;;;23.03;40.39;101595.97;5031424;28;20029;-77
2022/09/15 09:05:12;;;;;;;7.70;1.50;;;;;;;23.14;39.85;101597.72;5030034;28;20480;-77
2022/09/15 09:08:22;;;;;;;14.60;2.75;;;;;;;23.31;39.73;101601.94;5031551;28;20022;-78
2022/09/15 09:10:52;;;;;;;6.20;1.70;;;;;;;23.35;39.19;101607.53;5031792;28;20419;-77
2022/09/15 09:13:32;;;;;;;9.98;1.60;;;;;;;23.38;38.94;101607.59;5033125;28;20098;-78
2022/09/15 09:16:20;;;;;;;140.98;16.55;;;;;;;23.50;38.77;101612.09;5032959;28;20464;-77
2022/09/15 09:19:22;;;;;;;12.23;3.17;;;;;;;23.61;38.93;101615.06;5033081;28;20022;-77
2022/09/15 09:21:57;;;;;;;11.25;2.22;;;;;;;23.92;38.53;101622.97;5033055;28;20036;-77
2022/09/15 09:24:41;;;;;;;26.23;4.55;;;;;;;23.96;38.84;101618.25;5033019;28;20431;-79
2022/09/15 09:27:13;;;;;;;15.23;2.55;;;;;;;23.83;39.08;101616.91;5031664;28;20423;-77
2022/09/15 09:29:44;;;;;;;5.65;1.48;;;;;;;23.95;38.54;101626.97;5032886;28;20037;-77
2022/09/15 09:32:24;;;;;;;6.07;1.58;;;;;;;23.95;38.39;101625.00;5032821;28;20022;-76
2022/09/15 09:35:14;;;;;;;5.18;1.30;;;;;;;23.82;38.22;101625.66;5032877;28;20475;-77
2022/09/15 09:37:40;;;;;;;30.98;3.50;;;;;;;23.73;38.61;101629.56;5032755;28;20022;-77
2022/09/15 09:40:11;;;;;;;9.52;2.35;;;;;;;23.74;38.55;101628.38;5032682;28;20373;-78
2022/09/15 09:42:38;;;;;;;30.95;4.72;;;;;;;23.80;38.65;101628.81;5032686;28;20531;-77
2022/09/15 09:45:06;;;;;;;11.75;2.38;;;;;;;23.87;38.45;101633.69;5032690;28;20059;-77
2022/09/15 09:47:35;;;;;;;15.43;2.88;;;;;;;24.12;37.98;101629.16;5032703;28;20496;-77
2022/09/15 09:50:01;;;;;;;14.88;2.92;;;;;;;24.18;38.08;101605.31;5031701;28;20032;-77
2022/09/15 09:52:38;;;;;;;5.35;1.65;;;;;;;24.07;37.85;101635.88;5032585;28;20105;-77
2022/09/15 09:55:21;;;;;;;8.70;1.73;;;;;;;23.90;37.92;101635.72;5032616;28;20025;-77
2022/09/15 09:57:47;;;;;;;14.18;2.13;;;;;;;23.82;38.36;101629.25;5032572;28;20104;-77
2022/09/15 10:00:30;;;;;;;10.15;2.53;;;;;;;23.86;37.82;101627.28;5030184;28;20116;-77
2022/09/15 10:02:57;;;;;;;5.18;2.25;;;;;;;24.13;38.06;101621.59;5032445;28;20079;-77
2022/09/15 10:05:22;;;;;;;5.15;1.70;;;;;;;24.22;37.70;101622.88;5032433;28;20021;-77
2022/09/15 10:07:48;;;;;;;10.45;1.42;;;;;;;24.15;37.59;101633.16;5032302;28;20225;-77
2022/09/15 10:10:22;;;;;;;4.53;1.45;;;;;;;24.19;37.19;101629.25;5030915;28;20053;-78
2022/09/15 10:12:49;;;;;;;4.55;1.63;;;;;;;24.31;36.91;101622.53;5032464;28;20101;-79
2022/09/15 10:15:27;;;;;;;6.47;1.50;;;;;;;24.26;36.95;101620.94;5032399;28;20037;-77
2022/09/15 10:17:54;;;;;;;9.25;2.53;;;;;;;24.43;36.46;101624.28;5032355;28;20561;-77
2022/09/15 10:20:32;;;;;;;3.47;1.38;;;;;;;24.40;36.48;101625.03;5028038;28;21522;-77
2022/09/15 10:23:07;;;;;;;12.93;2.10;;;;;;;24.41;36.41;101626.63;5031973;28;20034;-78
2022/09/15 10:25:37;;;;;;;7.95;1.90;;;;;;;24.24;36.34;101630.84;5032189;28;20116;-78
2022/09/15 10:28:12;;;;;;;5.03;1.60;;;;;;;24.38;35.60;101636.59;5032282;28;20032;-79
2022/09/15 10:30:56;;;;;;;5.80;1.38;;;;;;;24.35;35.88;101629.00;5032275;28;20052;-78
2022/09/15 10:33:30;;;;;;;5.78;1.38;;;;;;;24.46;35.88;101626.28;5032371;28;20022;-77
2022/09/15 10:36:04;;;;;;;10.40;2.20;;;;;;;24.65;35.59;101636.44;5032205;28;20040;-80
2022/09/15 10:39:35;;;;;;;9.40;2.25;;;;;;;24.79;35.51;101631.75;5032240;28;20080;-78
2022/09/15 10:42:22;;;;;;;9.57;2.90;;;;;;;25.03;35.18;101632.28;4951662;29;20090;-78
2022/09/15 10:45:09;;;;;;;12.52;1.70;;;;;;;24.83;35.30;101628.97;4951863;29;20054;-78
2022/09/15 10:47:53;;;;;;;12.00;2.40;;;;;;;25.13;35.31;101625.97;5012725;28;20426;-78
2022/09/15 10:50:27;;;;;;;6.03;1.40;;;;;;;25.22;34.36;101629.22;5032119;28;20488;-77
2022/09/15 10:53:13;;;;;;;3.55;1.10;;;;;;;25.68;34.61;101629.41;5032079;28;20357;-78
2022/09/15 10:55:54;;;;;;;3.15;1.20;;;;;;;25.48;34.02;101628.16;5031999;28;20047;-78
2022/09/15 10:58:35;;;;;;;6.43;1.48;;;;;;;25.27;36.27;101633.66;5031978;28;20509;-78
2022/09/15 11:01:35;;;;;;;4.68;1.35;;;;;;;25.17;36.08;101638.00;5033537;28;20026;-78
2022/09/15 11:04:40;;;;;;;7.28;1.77;;;;;;;25.22;36.50;101632.00;5035495;28;20030;-78
2022/09/15 11:07:32;;;;;;;4.25;1.77;;;;;;;24.83;36.27;101626.16;5035539;28;20029;-78
2022/09/15 11:10:23;;;;;;;6.65;1.67;;;;;;;24.94;35.16;101629.84;5035297;28;20049;-78
2022/09/15 11:13:03;;;;;;;12.40;1.88;;;;;;;25.21;35.71;101636.00;5035456;28;20068;-78
2022/09/15 11:15:50;;;;;;;12.25;2.03;;;;;;;25.10;35.37;101640.75;5035524;28;20030;-77
2022/09/15 11:18:58;;;;;;;28.52;3.83;;;;;;;25.26;34.85;101632.03;5035337;28;20499;-78
2022/09/15 11:21:39;;;;;;;7.72;1.75;;;;;;;25.09;35.28;101631.56;5035394;28;20099;-78
2022/09/15 11:24:26;;;;;;;8.05;1.60;;;;;;;25.27;34.74;101631.66;5035231;28;20040;-77
2022/09/15 11:27:13;;;;;;;4.25;1.25;;;;;;;25.18;34.41;101634.00;5033763;28;20436;-77
2022/09/15 11:29:50;;;;;;;7.90;1.58;;;;;;;25.40;34.69;101640.50;5033719;28;20487;-79
2022/09/15 11:32:53;;;;;;;3.90;1.10;;;;;;;25.32;34.17;101644.47;5034954;28;20030;-77
2022/09/15 11:35:37;;;;;;;8.18;1.42;;;;;;;25.32;33.96;101639.69;5033521;28;20044;-76
2022/09/15 11:38:18;;;;;;;4.20;1.40;;;;;;;25.24;33.70;101640.84;5032242;28;20033;-79
2022/09/15 11:40:50;;;;;;;29.70;3.95;;;;;;;25.38;33.65;101637.28;5033267;28;20067;-76
2022/09/15 11:43:23;;;;;;;7.40;1.10;;;;;;;25.30;33.73;101638.44;5034716;28;20021;-76